KOKK/OKK METAR and TAF weather

Enter ICAO airport designator
Station Type Date Time Source
KOKK METAR 2019/02/20 06:56 UTC NOAA

KOKK 200656Z AUTO 11011KT 8SM -SN SCT046 OVC060 M01/M03 A3026 RMK AO2 SNB42 PRESFR SLP259 P0000 T10111033 FZRANO


Station Type Date Time Source
KOKK Decoded METAR 2019/02/20 06:56 UTC NOAA

Kokomo, Kokomo Municipal Airport, IN, United States (KOKK) 40-32N 086-04W
Feb 20, 2019 - 01:56 AM EST / 2019.02.20 0656 UTC
Wind: from the ESE (110 degrees) at 13 MPH (11 KT):0
Visibility: 8 mile(s):0
Sky conditions: overcast
Weather: light snow
Precipitation last hour: A trace
Temperature: 30.0 F (-1.1 C)
Windchill: 19 F (-7 C):1
Dew Point: 26.1 F (-3.3 C)
Relative Humidity: 84%
Pressure (altimeter): 30.26 in. Hg (1024 hPa)
Pressure tendency: falling rapidly
ob: KOKK 200656Z AUTO 11011KT 8SM -SN SCT046 OVC060 M01/M03 A3026 RMK AO2 SNB42 PRESFR SLP259 P0000 T10111033 FZRANO
cycle: 7

Station Type Date Time Source
KOKK TAF UTC NOAA

Error!


Example: see airport list